Aviation Digital Data Service (ADDS)

Output produced by METARs form (1252 UTC 21 February 2018)
found at http://www.aviationweather.gov/adds/metars/
 
DIBK 211200Z 24008KT 9999 FEW013 BKN100 29/20 Q1011 NOSIG
DIAP 211230Z 25012KT 9999 FEW015 28/23 Q1009 NOSIG
TAF DIAP 201100Z 2012/2118 24012KT 8000 SCT012 SCT040 
     PROB40 
     TEMPO 2015/2020 TS BKN012 FEW020CB